Time;durP1;ratioP1;P1;durP2;ratioP2;P2;SDS_P1;SDS_P2;PMS_P1;PMS_P2;Temp;Humidity;BMP_temperature;BMP_pressure;BME280_temperature;BME280_humidity;BME280_pressure;Samples;Min_cycle;Max_cycle;Signal;HPM_P1;HPM_P2
2023/04/22 00:01:33;;;;;;;4.70;2.17;;;15.10;99.90;;;;;;5111585;28;20023;-67
2023/04/22 00:03:59;;;;;;;7.33;2.40;;;15.10;99.90;;;;;;5111930;28;20027;-67
2023/04/22 00:06:25;;;;;;;3.70;2.42;;;15.10;99.90;;;;;;5111573;28;20674;-67
2023/04/22 00:08:52;;;;;;;;;;;14.90;99.90;;;;;;5111777;28;20374;-67
2023/04/22 00:11:18;;;;;;;6.15;2.20;;;14.80;99.90;;;;;;5112154;28;20002;-67
2023/04/22 00:13:44;;;;;;;6.57;2.40;;;14.80;99.90;;;;;;5111857;28;20044;-67
2023/04/22 00:16:11;;;;;;;6.25;2.60;;;14.80;99.90;;;;;;5111356;28;20119;-66
2023/04/22 00:18:37;;;;;;;3.97;2.05;;;14.80;99.90;;;;;;5111509;28;20035;-67
2023/04/22 00:21:05;;;;;;;5.10;2.20;;;14.80;99.90;;;;;;5111473;28;20102;-67
2023/04/22 00:23:31;;;;;;;3.00;2.10;;;14.90;99.90;;;;;;5111814;28;20270;-67
2023/04/22 00:25:57;;;;;;;5.40;2.10;;;14.90;99.90;;;;;;5111424;28;20019;-67
2023/04/22 00:28:24;;;;;;;6.70;2.07;;;14.80;99.90;;;;;;5111536;28;20095;-68
2023/04/22 00:30:50;;;;;;;4.50;2.17;;;14.80;99.90;;;;;;5111395;28;20351;-68
2023/04/22 00:33:16;;;;;;;4.60;2.20;;;14.80;99.90;;;;;;5111327;28;20459;-68
2023/04/22 00:35:43;;;;;;;5.22;2.30;;;14.80;99.90;;;;;;5111618;28;20023;-69
2023/04/22 00:38:12;;;;;;;5.50;2.35;;;14.80;99.90;;;;;;5109997;28;20114;-68
2023/04/22 00:40:39;;;;;;;3.50;2.10;;;14.90;99.90;;;;;;5111284;28;20027;-68
2023/04/22 00:43:04;;;;;;;;;;;14.80;99.90;;;;;;5111638;28;20047;-67
2023/04/22 00:45:31;;;;;;;4.40;2.38;;;14.80;99.90;;;;;;5111348;28;20224;-68
2023/04/22 00:47:57;;;;;;;5.93;2.50;;;14.70;99.90;;;;;;5111672;28;20023;-67
2023/04/22 00:50:24;;;;;;;6.22;2.50;;;14.60;99.90;;;;;;5111729;28;20047;-68
2023/04/22 00:52:50;;;;;;;5.32;2.35;;;14.50;99.90;;;;;;5111584;28;20032;-67
2023/04/22 00:55:17;;;;;;;9.03;3.00;;;14.40;99.90;;;;;;5111563;28;20027;-67
2023/04/22 00:57:43;;;;;;;6.25;2.60;;;14.40;99.90;;;;;;5111182;28;20058;-69
2023/04/22 01:00:10;;;;;;;4.33;2.50;;;14.40;99.90;;;;;;5109525;28;20016;-65
2023/04/22 01:02:37;;;;;;;4.97;2.35;;;14.40;99.90;;;;;;5111085;28;20345;-68
2023/04/22 01:05:03;;;;;;;;;;;14.40;99.90;;;;;;5111674;28;20020;-66
2023/04/22 01:07:29;;;;;;;5.38;2.90;;;14.30;99.90;;;;;;5111468;28;19904;-67
2023/04/22 01:09:56;;;;;;;6.50;2.43;;;14.30;99.90;;;;;;5115231;28;20027;-69
2023/04/22 01:12:22;;;;;;;7.78;3.00;;;14.30;99.90;;;;;;5114697;28;20035;-68
2023/04/22 01:14:48;;;;;;;8.10;2.90;;;14.30;99.90;;;;;;5114746;28;20127;-67
2023/04/22 01:17:15;;;;;;;6.40;3.00;;;14.20;99.90;;;;;;5114503;28;20387;-67
2023/04/22 01:19:42;;;;;;;6.07;3.10;;;14.20;99.90;;;;;;5114477;28;20034;-68
2023/04/22 01:22:13;;;;;;;11.68;3.50;;;14.10;99.90;;;;;;5114648;28;20086;-68
2023/04/22 01:24:40;;;;;;;6.07;3.08;;;14.00;99.90;;;;;;5114704;28;20489;-68
2023/04/22 01:27:07;;;;;;;8.18;3.40;;;14.00;99.90;;;;;;5115017;27;20197;-68
2023/04/22 01:29:34;;;;;;;9.63;4.15;;;14.00;99.90;;;;;;5114612;28;20544;-66
2023/04/22 01:32:01;;;;;;;9.45;3.40;;;13.90;99.90;;;;;;5114161;28;20024;-68
2023/04/22 01:34:27;;;;;;;;;;;13.90;99.90;;;;;;5115036;28;20040;-67
2023/04/22 01:36:54;;;;;;;9.68;3.60;;;13.90;99.90;;;;;;5114329;28;20201;-68
2023/04/22 01:39:20;;;;;;;5.70;2.80;;;14.00;99.90;;;;;;5114462;28;20140;-68
2023/04/22 01:41:46;;;;;;;6.10;3.10;;;13.90;99.90;;;;;;5114187;28;20044;-68
2023/04/22 01:44:13;;;;;;;7.85;3.97;;;13.90;99.90;;;;;;5114366;28;20028;-69
2023/04/22 01:46:39;;;;;;;6.95;3.25;;;13.80;99.90;;;;;;5113916;28;20018;-68
2023/04/22 01:49:05;;;;;;;7.03;3.13;;;13.80;99.90;;;;;;5114023;28;20115;-68
2023/04/22 01:51:31;;;;;;;6.73;3.10;;;13.80;99.90;;;;;;5113998;28;20060;-68
2023/04/22 01:53:57;;;;;;;6.38;3.45;;;13.80;99.90;;;;;;5113934;28;20435;-67
2023/04/22 01:56:23;;;;;;;8.87;3.40;;;13.90;99.90;;;;;;5114336;28;20439;-68
2023/04/22 01:58:49;;;;;;;11.40;3.58;;;13.90;99.90;;;;;;5113802;28;20686;-68
2023/04/22 02:01:15;;;;;;;9.07;3.23;;;14.00;99.90;;;;;;5113716;28;20031;-68
2023/04/22 02:03:41;;;;;;;6.60;3.50;;;13.90;99.90;;;;;;5112369;28;20277;-68
2023/04/22 02:06:07;;;;;;;7.67;3.40;;;13.90;99.90;;;;;;5113654;28;20023;-68
2023/04/22 02:08:34;;;;;;;7.77;3.30;;;13.90;99.90;;;;;;5114102;28;20471;-68
2023/04/22 02:11:00;;;;;;;11.60;3.58;;;13.90;99.90;;;;;;5113616;28;20499;-67
2023/04/22 02:13:33;;;;;;;5.97;3.33;;;13.80;99.90;;;;;;5113859;28;20151;-67
2023/04/22 02:15:59;;;;;;;5.28;3.15;;;13.80;99.90;;;;;;5113650;28;20352;-67
2023/04/22 02:18:26;;;;;;;;;;;13.80;99.90;;;;;;5113265;28;20024;-67
2023/04/22 02:20:52;;;;;;;8.65;3.38;;;13.80;99.90;;;;;;5113827;28;20258;-66
2023/04/22 02:23:18;;;;;;;7.90;3.27;;;13.80;99.90;;;;;;5113550;28;20342;-68
2023/04/22 02:25:49;;;;;;;7.00;3.08;;;13.80;99.90;;;;;;5113802;28;20110;-68
2023/04/22 02:28:15;;;;;;;8.35;3.13;;;13.80;99.90;;;;;;5114346;28;20031;-68
2023/04/22 02:30:41;;;;;;;6.93;2.70;;;13.80;99.90;;;;;;5113674;28;20016;-67
2023/04/22 02:33:07;;;;;;;8.63;3.33;;;13.70;99.90;;;;;;5113704;28;20075;-68
2023/04/22 02:35:34;;;;;;;9.33;3.33;;;13.70;99.90;;;;;;5113862;28;20051;-68
2023/04/22 02:38:00;;;;;;;12.17;3.53;;;13.70;99.90;;;;;;5113648;28;20019;-69
2023/04/22 02:40:26;;;;;;;9.80;2.90;;;13.70;99.90;;;;;;5113895;28;20031;-68
2023/04/22 02:42:52;;;;;;;9.20;3.73;;;13.70;99.90;;;;;;5113561;28;20043;-68
2023/04/22 02:45:18;;;;;;;10.20;3.57;;;13.70;99.90;;;;;;5113200;28;20112;-69
2023/04/22 02:47:44;;;;;;;9.35;3.47;;;13.60;99.90;;;;;;5113820;28;20035;-68
2023/04/22 02:50:10;;;;;;;8.73;3.50;;;13.60;99.90;;;;;;5113789;28;20130;-67
2023/04/22 02:52:36;;;;;;;7.20;3.35;;;13.60;99.90;;;;;;5113360;28;20135;-68
2023/04/22 02:55:02;;;;;;;6.90;3.70;;;13.50;99.90;;;;;;5113042;28;20030;-68
2023/04/22 02:57:28;;;;;;;5.95;3.70;;;13.60;99.90;;;;;;5114028;28;20030;-68
2023/04/22 02:59:55;;;;;;;8.40;3.87;;;13.50;99.90;;;;;;5113747;28;20023;-68
2023/04/22 03:02:22;;;;;;;;;;;13.50;99.90;;;;;;5113416;28;20265;-68
2023/04/22 03:04:48;;;;;;;8.15;3.28;;;13.50;99.90;;;;;;5113252;28;19915;-67
2023/04/22 03:07:14;;;;;;;9.23;4.13;;;13.50;99.90;;;;;;5113314;28;20379;-68
2023/04/22 03:09:41;;;;;;;7.38;4.10;;;13.50;99.90;;;;;;5113324;28;20800;-67
2023/04/22 03:12:06;;;;;;;;;;;13.50;99.90;;;;;;5114067;28;20073;-69
2023/04/22 03:14:32;;;;;;;11.77;4.32;;;13.50;99.90;;;;;;5113348;28;19908;-69
2023/04/22 03:16:58;;;;;;;8.07;4.40;;;13.40;99.90;;;;;;5113006;28;20020;-68
2023/04/22 03:19:24;;;;;;;9.23;4.43;;;13.50;99.90;;;;;;5113041;28;20022;-68
2023/04/22 03:21:50;;;;;;;8.27;3.90;;;13.40;99.90;;;;;;5113309;28;20047;-68
2023/04/22 03:24:17;;;;;;;10.63;4.60;;;13.20;99.90;;;;;;5113452;28;20038;-68
2023/04/22 03:26:43;;;;;;;10.50;4.10;;;13.20;99.90;;;;;;5113231;28;20470;-69
2023/04/22 03:29:09;;;;;;;10.48;4.05;;;13.10;99.90;;;;;;5113265;28;20058;-69
2023/04/22 03:31:36;;;;;;;7.33;4.30;;;13.10;99.90;;;;;;5112214;28;20475;-67
2023/04/22 03:34:02;;;;;;;9.30;4.85;;;13.20;99.90;;;;;;5112096;28;20483;-69
2023/04/22 03:36:28;;;;;;;11.05;5.50;;;13.10;99.90;;;;;;5112141;28;20030;-69
2023/04/22 03:38:54;;;;;;;10.75;4.25;;;13.00;99.90;;;;;;5112846;28;20024;-69
2023/04/22 03:41:20;;;;;;;8.18;4.00;;;13.00;99.90;;;;;;5112581;28;20094;-69
2023/04/22 03:43:46;;;;;;;10.20;4.20;;;13.00;99.90;;;;;;5112944;28;20548;-68
2023/04/22 03:46:14;;;;;;;13.13;4.63;;;13.00;99.90;;;;;;5112379;28;20028;-69
2023/04/22 03:48:40;;;;;;;8.88;4.65;;;13.10;99.90;;;;;;5112861;28;20146;-69
2023/04/22 03:51:06;;;;;;;13.20;4.43;;;13.10;99.90;;;;;;5112446;28;20055;-68
2023/04/22 03:53:32;;;;;;;9.48;4.57;;;13.10;99.90;;;;;;5112212;28;20103;-69
2023/04/22 03:55:58;;;;;;;8.27;5.07;;;13.10;99.90;;;;;;5111114;28;20127;-69
2023/04/22 03:58:24;;;;;;;13.52;4.68;;;13.10;99.90;;;;;;5112753;28;20089;-68
2023/04/22 04:00:50;;;;;;;8.00;4.50;;;13.10;99.90;;;;;;5112156;28;20034;-69
2023/04/22 04:03:17;;;;;;;11.23;4.88;;;13.10;99.90;;;;;;5112649;28;20034;-67
2023/04/22 04:05:43;;;;;;;9.53;5.10;;;13.10;99.90;;;;;;5112632;28;20061;-69
2023/04/22 04:08:09;;;;;;;10.20;6.00;;;13.10;99.90;;;;;;5112388;28;20265;-68
2023/04/22 04:10:36;;;;;;;7.43;4.00;;;13.10;99.90;;;;;;5111012;28;20095;-66
2023/04/22 04:13:03;;;;;;;11.57;5.38;;;13.00;99.90;;;;;;5106413;28;20028;-68
2023/04/22 04:15:29;;;;;;;10.18;4.88;;;13.10;99.90;;;;;;5111290;28;20471;-68
2023/04/22 04:17:55;;;;;;;9.88;4.35;;;13.10;99.90;;;;;;5110478;28;20024;-69
2023/04/22 04:20:21;;;;;;;12.20;4.93;;;13.10;99.90;;;;;;5112875;28;20544;-66
2023/04/22 04:22:47;;;;;;;7.72;4.25;;;13.10;99.90;;;;;;5091056;28;20073;-70
2023/04/22 04:25:13;;;;;;;10.37;4.73;;;13.00;99.90;;;;;;5092957;28;20024;-71
2023/04/22 04:27:40;;;;;;;7.32;4.95;;;13.00;99.90;;;;;;5092331;28;20574;-69
2023/04/22 04:30:08;;;;;;;9.93;4.57;;;13.10;99.90;;;;;;5108044;28;20024;-69
2023/04/22 04:32:35;;;;;;;8.88;4.82;;;13.20;99.90;;;;;;5109754;28;20118;-70
2023/04/22 04:35:02;;;;;;;10.63;4.72;;;13.30;99.90;;;;;;5113172;28;20047;-70
2023/04/22 04:37:29;;;;;;;14.23;4.93;;;13.30;99.90;;;;;;5112682;28;20073;-70
2023/04/22 04:39:58;;;;;;;7.38;5.03;;;13.30;99.90;;;;;;5112655;28;20031;-70
2023/04/22 04:42:24;;;;;;;10.82;5.20;;;13.40;99.90;;;;;;5114395;28;20416;-69
2023/04/22 04:44:51;;;;;;;10.23;4.38;;;13.40;99.90;;;;;;5115203;28;20447;-69
2023/04/22 04:47:17;;;;;;;9.00;4.97;;;13.30;99.90;;;;;;5116387;28;20032;-70
2023/04/22 04:49:44;;;;;;;7.53;4.70;;;13.30;99.90;;;;;;5116934;27;20522;-71
2023/04/22 04:52:11;;;;;;;9.50;5.47;;;13.30;99.90;;;;;;5116296;28;20019;-69
2023/04/22 04:54:37;;;;;;;9.93;5.35;;;13.50;99.90;;;;;;5116389;28;20107;-76
2023/04/22 04:57:05;;;;;;;12.55;5.32;;;13.50;99.90;;;;;;5114485;28;20036;-68
2023/04/22 04:59:32;;;;;;;9.63;4.95;;;13.50;99.90;;;;;;5116181;28;20032;-66
2023/04/22 05:01:58;;;;;;;12.43;5.68;;;13.40;99.90;;;;;;5112807;28;20085;-67
2023/04/22 05:04:24;;;;;;;7.10;4.40;;;13.50;99.90;;;;;;5114797;28;20055;-69
2023/04/22 05:06:50;;;;;;;12.30;4.97;;;13.70;99.90;;;;;;5116428;28;20031;-68
2023/04/22 05:09:16;;;;;;;10.43;5.00;;;14.10;99.90;;;;;;5116015;28;20534;-68
2023/04/22 05:11:42;;;;;;;7.15;4.10;;;14.10;99.90;;;;;;5116015;28;20386;-69
2023/04/22 05:14:08;;;;;;;7.70;3.80;;;14.70;99.90;;;;;;5116366;28;20182;-70
2023/04/22 05:16:34;;;;;;;13.17;3.87;;;15.80;99.90;;;;;;5115750;28;20020;-70
2023/04/22 05:19:00;;;;;;;11.82;4.25;;;16.30;99.90;;;;;;5116313;28;20023;-70
2023/04/22 05:21:26;;;;;;;10.70;3.80;;;16.90;99.90;;;;;;5116246;28;20504;-70
2023/04/22 05:23:53;;;;;;;10.03;3.93;;;17.50;99.90;;;;;;5114391;28;20787;-70
2023/04/22 05:26:19;;;;;;;8.00;3.45;;;18.00;99.90;;;;;;5115532;28;20058;-69
2023/04/22 05:28:45;;;;;;;9.48;3.45;;;18.40;99.90;;;;;;5115237;28;20020;-68
2023/04/22 05:31:12;;;;;;;6.70;3.38;;;18.60;99.90;;;;;;5115438;28;20039;-68
2023/04/22 05:33:38;;;;;;;8.43;3.53;;;18.90;99.90;;;;;;5115610;28;20036;-69
2023/04/22 05:36:05;;;;;;;11.95;3.28;;;19.30;99.90;;;;;;5115226;28;20031;-68
2023/04/22 05:38:32;;;;;;;11.02;3.40;;;19.60;99.90;;;;;;5115223;28;20027;-70
2023/04/22 05:40:58;;;;;;;10.88;3.22;;;19.70;99.90;;;;;;5115052;28;20064;-69
2023/04/22 05:43:24;;;;;;;8.02;3.10;;;20.10;99.90;;;;;;5114868;28;20055;-69
2023/04/22 05:45:50;;;;;;;8.55;2.97;;;20.20;99.90;;;;;;5099814;28;20028;-69
2023/04/22 05:48:16;;;;;;;8.95;3.63;;;20.40;99.90;;;;;;5093860;28;20039;-69
2023/04/22 05:50:42;;;;;;;5.97;2.80;;;20.20;99.90;;;;;;5093634;28;20016;-69
2023/04/22 05:53:08;;;;;;;8.93;2.97;;;21.10;99.90;;;;;;5092636;28;20172;-69
2023/04/22 05:55:34;;;;;;;6.47;2.78;;;20.90;99.90;;;;;;5093551;28;20107;-69
2023/04/22 05:58:00;;;;;;;7.30;2.67;;;21.20;99.90;;;;;;5093538;28;20046;-68
2023/04/22 06:00:26;;;;;;;15.35;3.35;;;21.30;99.90;;;;;;5092951;28;20020;-69
2023/04/22 06:02:52;;;;;;;9.00;2.78;;;21.30;99.90;;;;;;5111705;28;20028;-69
2023/04/22 06:05:18;;;;;;;11.27;2.65;;;21.50;99.90;;;;;;5112160;28;20089;-68
2023/04/22 06:07:44;;;;;;;6.57;2.75;;;21.70;99.90;;;;;;5113763;28;20070;-69
2023/04/22 06:10:10;;;;;;;8.88;2.58;;;22.00;99.90;;;;;;5112627;28;20019;-70
2023/04/22 06:12:36;;;;;;;10.07;2.50;;;22.10;99.90;;;;;;5113891;28;20036;-69
2023/04/22 06:15:03;;;;;;;8.00;2.40;;;21.70;99.90;;;;;;5113503;28;20034;-69
2023/04/22 06:17:29;;;;;;;10.18;2.75;;;21.20;99.90;;;;;;5113531;28;20455;-69
2023/04/22 06:19:55;;;;;;;9.32;2.65;;;21.10;99.90;;;;;;5113858;28;20115;-69
2023/04/22 06:22:21;;;;;;;7.38;2.75;;;21.60;99.90;;;;;;5114263;28;20027;-71
2023/04/22 06:24:47;;;;;;;7.80;2.33;;;20.70;99.90;;;;;;5114058;28;20020;-70
2023/04/22 06:27:15;;;;;;;9.68;2.65;;;19.90;99.90;;;;;;5113583;28;20019;-69
2023/04/22 06:29:41;;;;;;;7.68;2.63;;;20.00;99.90;;;;;;5113356;28;20142;-69
2023/04/22 06:32:07;;;;;;;7.47;2.42;;;20.70;99.90;;;;;;5111813;28;20074;-69
2023/04/22 06:34:33;;;;;;;9.85;2.60;;;21.10;99.90;;;;;;5113404;28;20067;-69
2023/04/22 06:36:59;;;;;;;5.20;2.33;;;21.40;99.90;;;;;;5113592;28;20041;-68
2023/04/22 06:39:25;;;;;;;8.68;2.42;;;22.00;99.90;;;;;;5113307;28;20059;-67
2023/04/22 06:41:51;;;;;;;10.45;2.53;;;23.50;99.90;;;;;;5113174;28;20046;-69
2023/04/22 06:44:19;;;;;;;8.45;2.17;;;24.40;99.90;;;;;;5112894;28;20023;-68
2023/04/22 06:46:45;;;;;;;8.73;2.42;;;24.30;99.90;;;;;;5112820;28;20031;-69
2023/04/22 06:49:11;;;;;;;8.32;2.45;;;25.10;99.90;;;;;;5113601;28;20050;-67
2023/04/22 06:51:37;;;;;;;11.27;2.58;;;24.80;99.90;;;;;;5113560;28;20473;-69
2023/04/22 06:54:03;;;;;;;9.30;2.55;;;24.80;99.90;;;;;;5112984;28;20096;-70
2023/04/22 06:56:30;;;;;;;9.70;2.30;;;26.00;99.90;;;;;;5113568;28;20028;-69
2023/04/22 06:58:56;;;;;;;7.70;2.53;;;26.20;99.90;;;;;;5113485;28;20454;-70
2023/04/22 07:01:22;;;;;;;9.65;1.95;;;26.70;99.90;;;;;;5113140;28;20388;-70
2023/04/22 07:03:48;;;;;;;8.98;2.08;;;27.20;99.90;;;;;;5112834;28;20028;-69
2023/04/22 07:06:14;;;;;;;6.90;2.10;;;27.00;99.90;;;;;;5112816;28;20098;-67
2023/04/22 07:08:40;;;;;;;;;;;27.80;99.90;;;;;;5113578;28;20024;-69
2023/04/22 07:11:06;;;;;;;10.43;1.90;;;27.90;99.90;;;;;;5112866;28;19949;-68
2023/04/22 07:13:33;;;;;;;6.95;1.98;;;28.10;99.90;;;;;;5113929;28;20032;-71
2023/04/22 07:16:00;;;;;;;8.95;2.30;;;27.70;99.90;;;;;;5112946;28;20110;-69
2023/04/22 07:18:27;;;;;;;9.00;2.10;;;27.20;99.90;;;;;;5112802;28;20023;-70
2023/04/22 07:20:53;;;;;;;8.55;2.13;;;27.50;99.90;;;;;;5112507;28;20114;-69
2023/04/22 07:23:19;;;;;;;6.00;2.00;;;27.50;99.90;;;;;;5112478;28;20487;-70
2023/04/22 07:25:45;;;;;;;10.95;2.20;;;27.10;99.90;;;;;;5112290;28;20019;-68
2023/04/22 07:28:11;;;;;;;10.55;2.40;;;25.70;99.90;;;;;;5112510;28;20023;-68
2023/04/22 07:30:39;;;;;;;9.38;2.42;;;25.40;99.90;;;;;;5112355;28;20034;-70
2023/04/22 07:33:05;;;;;;;7.40;2.25;;;24.50;99.90;;;;;;5112578;28;20043;-68
2023/04/22 07:35:31;;;;;;;7.63;2.15;;;24.10;99.90;;;;;;5112544;28;20088;-68
2023/04/22 07:37:57;;;;;;;7.32;2.00;;;24.30;99.90;;;;;;5112563;28;20023;-67
2023/04/22 07:40:24;;;;;;;7.70;2.20;;;24.10;99.90;;;;;;5112852;28;20026;-69
2023/04/22 07:42:50;;;;;;;5.45;1.95;;;24.00;99.90;;;;;;5110712;28;20521;-68
2023/04/22 07:45:18;;;;;;;6.65;2.30;;;24.00;99.90;;;;;;5112101;28;20495;-68
2023/04/22 07:47:45;;;;;;;10.48;3.28;;;24.30;99.90;;;;;;5112460;28;20102;-68
2023/04/22 07:50:11;;;;;;;8.80;2.20;;;24.00;99.90;;;;;;5111872;28;20024;-68
2023/04/22 07:52:37;;;;;;;11.43;2.60;;;24.30;99.90;;;;;;5111710;28;20032;-69
2023/04/22 07:55:06;;;;;;;7.82;2.03;;;23.90;99.90;;;;;;5112063;28;20096;-69
2023/04/22 07:57:37;;;;;;;8.32;2.33;;;23.90;99.90;;;;;;5111705;28;20031;-69
2023/04/22 08:00:07;;;;;;;7.35;2.35;;;24.00;99.90;;;;;;5111793;28;20024;-69
2023/04/22 08:02:33;;;;;;;9.75;2.22;;;24.50;99.90;;;;;;5111495;28;20074;-68
2023/04/22 08:05:00;;;;;;;10.43;2.00;;;24.60;99.90;;;;;;5112179;28;20035;-68
2023/04/22 08:07:26;;;;;;;5.53;1.65;;;24.50;99.90;;;;;;5111866;28;20479;-69
2023/04/22 08:09:55;;;;;;;6.10;1.95;;;24.70;99.90;;;;;;5112129;28;20028;-68
2023/04/22 08:12:21;;;;;;;10.30;2.22;;;24.70;99.90;;;;;;5111785;28;20088;-69
2023/04/22 08:14:47;;;;;;;3.65;1.40;;;24.50;99.90;;;;;;5112276;28;20489;-69
2023/04/22 08:17:13;;;;;;;6.65;2.17;;;24.50;99.90;;;;;;5113240;28;20475;-70
2023/04/22 08:19:39;;;;;;;12.13;3.08;;;24.10;99.90;;;;;;5116852;28;20038;-69
2023/04/22 08:22:05;;;;;;;8.57;2.47;;;24.50;99.90;;;;;;5116177;28;20074;-68
2023/04/22 08:24:32;;;;;;;8.98;1.90;;;24.90;99.90;;;;;;5116319;28;20019;-69
2023/04/22 08:26:58;;;;;;;7.00;2.05;;;25.10;99.90;;;;;;5115690;28;20031;-67
2023/04/22 08:29:24;;;;;;;5.90;1.70;;;25.60;99.90;;;;;;5115973;28;20020;-69
2023/04/22 08:31:50;;;;;;;7.30;1.80;;;25.40;99.90;;;;;;5115681;28;20024;-69
2023/04/22 08:34:16;;;;;;;8.63;1.75;;;25.70;99.90;;;;;;5115777;28;20115;-69
2023/04/22 08:36:44;;;;;;;7.55;2.28;;;25.50;99.90;;;;;;5115603;28;20019;-69
2023/04/22 08:39:10;;;;;;;8.90;2.10;;;24.70;99.90;;;;;;5116217;28;20098;-69
2023/04/22 08:41:38;;;;;;;9.73;2.30;;;24.60;99.90;;;;;;5115652;28;20027;-67
2023/04/22 08:44:04;;;;;;;6.10;1.77;;;24.80;99.90;;;;;;5115819;28;20122;-69
2023/04/22 08:46:32;;;;;;;9.48;2.00;;;24.60;99.90;;;;;;5115768;28;20104;-70
2023/04/22 08:49:04;;;;;;;10.20;2.08;;;24.70;99.90;;;;;;5115635;28;20103;-69
2023/04/22 08:51:34;;;;;;;11.02;2.00;;;24.00;99.90;;;;;;5115502;28;20052;-69
2023/04/22 08:54:01;;;;;;;8.57;2.10;;;24.40;99.90;;;;;;5097643;28;20390;-70
2023/04/22 08:56:29;;;;;;;10.43;2.65;;;24.30;99.90;;;;;;5115787;28;20065;-68
2023/04/22 08:58:56;;;;;;;6.43;2.28;;;23.90;99.90;;;;;;5113903;28;20023;-69
2023/04/22 09:01:22;;;;;;;;;;;23.70;99.90;;;;;;5115408;28;20446;-69
2023/04/22 09:03:48;;;;;;;12.70;3.75;;;23.90;99.90;;;;;;5115414;28;19907;-68
2023/04/22 09:06:18;;;;;;;13.07;3.25;;;24.30;99.90;;;;;;5115444;28;20343;-70
2023/04/22 09:08:46;;;;;;;4.13;2.03;;;24.30;99.90;;;;;;5115061;28;20087;-70
2023/04/22 09:11:12;;;;;;;6.45;2.30;;;24.10;99.90;;;;;;5113452;28;20032;-69
2023/04/22 09:13:39;;;;;;;7.88;2.28;;;24.20;99.90;;;;;;5115248;28;20498;-69
2023/04/22 09:16:06;;;;;;;8.35;2.58;;;24.00;99.90;;;;;;5113555;28;20055;-70
2023/04/22 09:18:38;;;;;;;;;;;23.30;99.90;;;;;;5115867;28;20052;-69
2023/04/22 09:21:04;;;;;;;6.32;2.40;;;23.80;99.90;;;;;;5114950;27;19907;-68
2023/04/22 09:23:31;;;;;;;7.90;2.35;;;23.70;99.90;;;;;;5114690;27;20027;-68
2023/04/22 09:25:57;;;;;;;10.50;2.67;;;23.60;99.90;;;;;;5113169;28;20071;-70
2023/04/22 09:28:25;;;;;;;11.60;2.75;;;23.90;99.90;;;;;;5113361;28;20499;-69
2023/04/22 09:30:51;;;;;;;10.52;2.60;;;23.70;99.90;;;;;;5114992;28;20052;-69
2023/04/22 09:33:17;;;;;;;9.65;2.88;;;23.30;99.90;;;;;;5112960;28;20051;-68
2023/04/22 09:35:43;;;;;;;7.90;2.83;;;22.90;99.90;;;;;;5114921;28;20042;-68
2023/04/22 09:38:11;;;;;;;10.65;2.90;;;22.80;99.90;;;;;;5114943;28;20027;-69
2023/04/22 09:40:42;;;;;;;7.70;2.72;;;22.40;99.90;;;;;;5114754;28;20034;-70
2023/04/22 09:43:09;;;;;;;8.27;2.80;;;22.50;99.90;;;;;;5114187;28;20195;-67
2023/04/22 09:45:38;;;;;;;10.13;3.00;;;22.50;99.90;;;;;;5114339;28;20093;-68
2023/04/22 09:48:13;;;;;;;9.88;2.80;;;22.40;99.90;;;;;;5114136;28;20115;-67
2023/04/22 09:50:43;;;;;;;10.07;2.90;;;22.50;99.90;;;;;;5114291;28;20474;-69
2023/04/22 09:53:11;;;;;;;8.50;2.60;;;22.50;99.90;;;;;;5114035;28;20076;-68
2023/04/22 09:55:40;;;;;;;7.97;2.50;;;22.60;99.90;;;;;;5114032;28;20024;-68
2023/04/22 09:58:10;;;;;;;9.80;2.40;;;22.40;99.90;;;;;;5114622;27;20168;-70
2023/04/22 10:00:55;;;;;;;5.75;2.30;;;22.20;99.90;;;;;;5114195;28;20061;-70
2023/04/22 10:03:21;;;;;;;6.28;2.60;;;22.00;99.90;;;;;;5112408;28;20126;-68
2023/04/22 10:05:48;;;;;;;8.98;2.50;;;22.00;99.90;;;;;;5114265;28;20103;-68
2023/04/22 10:08:15;;;;;;;6.80;2.50;;;22.20;99.90;;;;;;5113200;27;20036;-69
2023/04/22 10:10:42;;;;;;;11.00;2.30;;;22.30;99.90;;;;;;5113870;28;20032;-69
2023/04/22 10:13:08;;;;;;;9.60;1.90;;;22.50;99.90;;;;;;5113427;28;20464;-70
2023/04/22 10:15:56;;;;;;;6.85;2.08;;;22.40;99.90;;;;;;5113158;28;20107;-68
2023/04/22 10:18:26;;;;;;;8.80;1.90;;;22.50;99.90;;;;;;5112654;28;20023;-69
2023/04/22 10:20:54;;;;;;;6.07;2.00;;;22.40;99.90;;;;;;5113594;28;20102;-67
2023/04/22 10:23:23;;;;;;;9.38;1.95;;;21.90;99.90;;;;;;5113473;28;20038;-69
2023/04/22 10:25:54;;;;;;;4.88;1.90;;;22.00;99.90;;;;;;5113091;28;20115;-68
2023/04/22 10:28:22;;;;;;;4.95;1.65;;;21.90;99.90;;;;;;5111309;28;20030;-67
2023/04/22 10:30:48;;;;;;;10.05;2.00;;;22.30;99.90;;;;;;5112995;28;20491;-68
2023/04/22 10:33:20;;;;;;;;;;;21.90;99.90;;;;;;5113147;28;20067;-69
2023/04/22 10:36:14;;;;;;;10.07;3.65;;;22.20;99.90;;;;;;5113523;28;19904;-69
2023/04/22 10:38:49;;;;;;;13.25;5.75;;;22.30;99.90;;;;;;5113446;28;20047;-68
2023/04/22 10:41:21;;;;;;;10.35;2.58;;;22.30;99.90;;;;;;5112723;28;20024;-69
2023/04/22 10:43:54;;;;;;;5.43;2.20;;;22.50;99.90;;;;;;5113743;28;20146;-68
2023/04/22 10:46:38;;;;;;;9.43;1.98;;;22.30;99.90;;;;;;5113003;28;20103;-67
2023/04/22 10:49:20;;;;;;;4.40;2.00;;;22.40;99.90;;;;;;5113910;28;20016;-69
2023/04/22 10:51:53;;;;;;;8.23;3.30;;;22.70;99.90;;;;;;5111567;28;20042;-69
2023/04/22 10:54:26;;;;;;;12.50;2.35;;;22.80;99.90;;;;;;5113673;28;20428;-68
2023/04/22 10:57:05;;;;;;;8.00;2.20;;;22.50;99.90;;;;;;5113521;27;20333;-68
2023/04/22 10:59:33;;;;;;;5.57;1.92;;;22.50;99.90;;;;;;5111656;28;20039;-67
2023/04/22 11:02:06;;;;;;;7.20;1.80;;;22.40;99.90;;;;;;5112532;28;20507;-69
2023/04/22 11:04:33;;;;;;;5.95;1.60;;;22.30;99.90;;;;;;5112957;28;20031;-69
2023/04/22 11:07:19;;;;;;;5.65;1.90;;;22.40;99.90;;;;;;5111509;28;20019;-69
2023/04/22 11:10:28;;;;;;;9.80;1.60;;;22.60;99.90;;;;;;5112860;28;20143;-68
2023/04/22 11:13:01;;;;;;;9.75;1.83;;;22.70;99.90;;;;;;5112835;28;20507;-68
2023/04/22 11:15:28;;;;;;;6.95;1.83;;;22.60;99.90;;;;;;5113689;28;20054;-68
2023/04/22 11:17:55;;;;;;;19.08;2.60;;;22.40;99.90;;;;;;5113261;28;20027;-68
2023/04/22 11:20:21;;;;;;;7.72;3.13;;;22.50;99.90;;;;;;5113118;28;20028;-68
2023/04/22 11:22:52;;;;;;;8.38;4.00;;;22.30;99.90;;;;;;5103935;28;20027;-67
2023/04/22 11:25:19;;;;;;;5.53;3.03;;;22.40;99.90;;;;;;5110249;28;20036;-69
2023/04/22 11:27:46;;;;;;;7.65;2.53;;;22.20;99.90;;;;;;5112998;28;20035;-69
2023/04/22 11:30:23;;;;;;;6.95;2.35;;;22.30;99.90;;;;;;5112901;28;20027;-68
2023/04/22 11:32:57;;;;;;;5.45;2.60;;;22.40;99.90;;;;;;5111419;28;20031;-68
2023/04/22 11:35:29;;;;;;;4.70;2.03;;;22.40;99.90;;;;;;5112703;28;20032;-68
2023/04/22 11:37:58;;;;;;;6.43;2.13;;;22.60;99.90;;;;;;5111411;28;20335;-68
2023/04/22 11:40:36;;;;;;;6.85;2.40;;;22.50;99.90;;;;;;5111211;28;20069;-69
2023/04/22 11:43:04;;;;;;;6.90;2.00;;;22.20;99.90;;;;;;5112917;28;20051;-69
2023/04/22 11:45:31;;;;;;;4.88;1.85;;;22.00;99.90;;;;;;5112711;28;20033;-68
2023/04/22 11:47:58;;;;;;;6.63;2.38;;;22.00;99.90;;;;;;5112388;28;20031;-68
2023/04/22 11:50:26;;;;;;;6.03;2.38;;;22.00;99.90;;;;;;5112686;28;20102;-67
2023/04/22 11:53:01;;;;;;;5.32;1.92;;;21.80;99.90;;;;;;5111542;28;20038;-68
2023/04/22 11:55:32;;;;;;;8.85;1.98;;;21.80;99.90;;;;;;5113097;28;20111;-67
2023/04/22 11:58:06;;;;;;;4.32;1.80;;;22.00;99.90;;;;;;5113021;28;20483;-68
2023/04/22 12:00:44;;;;;;;6.00;2.28;;;21.80;99.90;;;;;;5113220;28;20102;-68
2023/04/22 12:03:22;;;;;;;6.57;1.85;;;21.90;99.90;;;;;;5112533;28;20101;-69
2023/04/22 12:06:00;;;;;;;5.03;2.00;;;22.30;99.90;;;;;;5113166;28;20076;-68
2023/04/22 12:08:35;;;;;;;4.45;1.83;;;22.30;99.90;;;;;;5113232;28;20045;-69
2023/04/22 12:11:04;;;;;;;34.17;3.67;;;22.30;99.90;;;;;;5112762;28;20036;-68
2023/04/22 12:13:39;;;;;;;11.25;1.90;;;22.20;99.90;;;;;;5112774;28;20434;-68
2023/04/22 12:16:12;;;;;;;6.72;1.90;;;22.20;99.90;;;;;;5112905;28;20042;-68
2023/04/22 12:18:40;;;;;;;6.15;2.10;;;22.40;99.90;;;;;;5112895;28;20020;-69
2023/04/22 12:21:06;;;;;;;7.15;2.10;;;22.30;99.90;;;;;;5113205;28;20130;-69
2023/04/22 12:23:49;;;;;;;7.70;1.75;;;22.30;99.90;;;;;;5112892;28;20023;-69
2023/04/22 12:26:18;;;;;;;11.70;2.13;;;22.30;99.90;;;;;;5113228;28;20051;-68
2023/04/22 12:28:45;;;;;;;11.45;2.83;;;22.10;99.90;;;;;;5112565;28;20522;-69
2023/04/22 12:31:13;;;;;;;10.45;2.28;;;22.10;99.90;;;;;;5112710;28;20065;-68
2023/04/22 12:33:39;;;;;;;9.52;2.22;;;22.20;99.90;;;;;;5112437;28;20062;-68
2023/04/22 12:36:06;;;;;;;8.15;2.25;;;22.30;99.90;;;;;;5113056;28;20027;-69
2023/04/22 12:38:32;;;;;;;6.35;1.90;;;22.10;99.90;;;;;;5112615;28;20042;-68
2023/04/22 12:40:59;;;;;;;14.45;2.20;;;22.00;99.90;;;;;;5112553;28;20055;-68
2023/04/22 12:43:25;;;;;;;9.55;2.35;;;21.90;99.90;;;;;;5112501;28;20139;-68
2023/04/22 12:45:51;;;;;;;7.03;2.00;;;22.20;99.90;;;;;;5112610;28;20023;-67
2023/04/22 12:48:17;;;;;;;6.07;1.92;;;22.30;99.90;;;;;;5112533;28;20447;-68
2023/04/22 12:50:48;;;;;;;9.77;2.85;;;22.40;99.90;;;;;;5112515;28;20027;-67